createdAt,value
2018-03-08T00:00:25.698Z,1000.88
2018-03-08T00:01:52.821Z,1000.87
2018-03-08T00:03:19.843Z,1000.88
2018-03-08T00:04:47.281Z,1000.87
2018-03-08T00:06:14.411Z,1000.87
2018-03-08T00:07:41.565Z,1000.90
2018-03-08T00:09:08.657Z,1000.90
2018-03-08T00:10:35.864Z,1000.90
2018-03-08T00:12:03.031Z,1000.89
2018-03-08T00:13:30.234Z,1000.92
2018-03-08T00:14:57.572Z,1000.92
2018-03-08T00:16:24.725Z,1000.93
2018-03-08T00:17:52.099Z,1000.93
2018-03-08T00:19:19.264Z,1000.93
2018-03-08T00:20:46.562Z,1000.94
2018-03-08T00:22:13.683Z,1000.94
2018-03-08T00:23:40.780Z,1000.96
2018-03-08T00:25:07.903Z,1000.97
2018-03-08T00:26:35.184Z,1001.00
2018-03-08T00:28:02.328Z,1001.01
2018-03-08T00:29:29.581Z,1001.02
2018-03-08T00:30:56.690Z,1001.02
2018-03-08T00:32:23.835Z,1001.04
2018-03-08T00:33:51.129Z,1001.04
2018-03-08T00:35:18.142Z,1001.06
2018-03-08T00:36:45.441Z,1001.04
2018-03-08T00:38:12.437Z,1001.04
2018-03-08T00:39:39.531Z,1001.06
2018-03-08T00:41:06.537Z,1001.02
2018-03-08T00:42:33.842Z,1001.04
2018-03-08T00:44:00.851Z,1001.03
2018-03-08T00:45:27.997Z,1001.00
2018-03-08T00:46:55.238Z,1001.00
2018-03-08T00:48:22.357Z,1001.00
2018-03-08T00:49:49.705Z,1001.00
2018-03-08T00:51:16.883Z,1000.99
2018-03-08T00:52:44.177Z,1000.97
2018-03-08T00:54:11.234Z,1000.99
2018-03-08T00:55:38.238Z,1001.03
2018-03-08T00:57:05.368Z,1001.02
2018-03-08T00:58:32.520Z,1001.01
2018-03-08T00:59:59.617Z,1001.01
2018-03-08T01:01:26.721Z,1001.01
2018-03-08T01:02:53.790Z,1001.02
2018-03-08T01:04:21.032Z,1001.03
2018-03-08T01:05:48.239Z,1001.03
2018-03-08T01:07:15.320Z,1001.04
2018-03-08T01:08:42.308Z,1001.04
2018-03-08T01:10:09.596Z,1001.03
2018-03-08T01:11:36.681Z,1001.03
2018-03-08T01:13:03.764Z,1001.03
2018-03-08T01:14:31.191Z,1001.05
2018-03-08T01:15:58.421Z,1001.05
2018-03-08T01:17:25.463Z,1001.03
2018-03-08T01:18:52.668Z,1001.04
2018-03-08T01:20:19.698Z,1001.06
2018-03-08T01:21:46.913Z,1001.10
2018-03-08T01:23:14.131Z,1001.11
2018-03-08T01:24:41.112Z,1001.14
2018-03-08T01:26:08.232Z,1001.14
2018-03-08T01:27:35.170Z,1001.13
2018-03-08T01:29:02.336Z,1001.13
2018-03-08T01:30:29.434Z,1001.16
2018-03-08T01:33:23.815Z,1001.16
2018-03-08T01:34:50.940Z,1001.19
2018-03-08T01:36:18.034Z,1001.17
2018-03-08T01:37:45.148Z,1001.17
2018-03-08T01:39:12.212Z,1001.16
2018-03-08T01:40:39.394Z,1001.15
2018-03-08T01:42:06.400Z,1001.14
2018-03-08T01:43:33.828Z,1001.12
2018-03-08T01:45:00.903Z,1001.13
2018-03-08T01:46:28.312Z,1001.12
2018-03-08T01:47:55.534Z,1001.11
2018-03-08T01:49:22.689Z,1001.12
2018-03-08T01:50:49.712Z,1001.12
2018-03-08T01:52:16.907Z,1001.12
2018-03-08T01:53:43.994Z,1001.14
2018-03-08T01:55:10.963Z,1001.14
2018-03-08T01:56:38.071Z,1001.16
2018-03-08T01:58:05.259Z,1001.16
2018-03-08T01:59:32.440Z,1001.13
2018-03-08T02:00:59.575Z,1001.13
2018-03-08T02:02:26.723Z,1001.13
2018-03-08T02:03:53.903Z,1001.13
2018-03-08T02:05:20.976Z,1001.13
2018-03-08T02:06:48.146Z,1001.14
2018-03-08T02:08:15.333Z,1001.15
2018-03-08T02:09:42.536Z,1001.13
2018-03-08T02:11:09.635Z,1001.13
2018-03-08T02:12:36.882Z,1001.13
2018-03-08T02:14:03.908Z,1001.15
2018-03-08T02:15:31.046Z,1001.13
2018-03-08T02:16:58.141Z,1001.12
2018-03-08T02:18:25.352Z,1001.15
2018-03-08T02:19:52.581Z,1001.15
2018-03-08T02:21:19.911Z,1001.18
2018-03-08T02:22:47.036Z,1001.19
2018-03-08T02:24:14.251Z,1001.19
2018-03-08T02:25:41.489Z,1001.20
2018-03-08T02:28:35.798Z,1001.18
2018-03-08T02:30:02.980Z,1001.18
2018-03-08T02:31:30.210Z,1001.17
2018-03-08T02:32:57.287Z,1001.18
2018-03-08T02:34:24.408Z,1001.20
2018-03-08T02:35:51.691Z,1001.20
2018-03-08T02:37:18.840Z,1001.22
2018-03-08T02:38:45.873Z,1001.28
2018-03-08T02:40:13.060Z,1001.25
2018-03-08T02:41:40.210Z,1001.26
2018-03-08T02:43:07.127Z,1001.23
2018-03-08T02:44:34.342Z,1001.24
2018-03-08T02:46:01.505Z,1001.23
2018-03-08T02:47:28.804Z,1001.21
2018-03-08T02:48:55.994Z,1001.21
2018-03-08T02:50:23.219Z,1001.22
2018-03-08T02:51:50.517Z,1001.24
2018-03-08T02:53:17.597Z,1001.28
2018-03-08T02:54:44.861Z,1001.27
2018-03-08T02:56:11.955Z,1001.27
2018-03-08T02:57:38.986Z,1001.28
2018-03-08T02:59:05.967Z,1001.24
2018-03-08T03:00:33.259Z,1001.24
2018-03-08T03:02:00.440Z,1001.24
2018-03-08T03:03:27.510Z,1001.23
2018-03-08T03:04:54.809Z,1001.23
2018-03-08T03:06:21.915Z,1001.25
2018-03-08T03:07:49.054Z,1001.26
2018-03-08T03:09:16.132Z,1001.25
2018-03-08T03:10:43.296Z,1001.26
2018-03-08T03:12:10.545Z,1001.24
2018-03-08T03:13:37.631Z,1001.26
2018-03-08T03:15:04.791Z,1001.26
2018-03-08T03:16:31.923Z,1001.25
2018-03-08T03:17:59.036Z,1001.25
2018-03-08T03:19:26.237Z,1001.26
2018-03-08T03:20:53.513Z,1001.25
2018-03-08T03:22:20.407Z,1001.26
2018-03-08T03:23:47.567Z,1001.27
2018-03-08T03:25:14.672Z,1001.28
2018-03-08T03:26:41.860Z,1001.29
2018-03-08T03:28:09.072Z,1001.32
2018-03-08T03:29:36.283Z,1001.32
2018-03-08T03:31:03.580Z,1001.29
2018-03-08T03:32:30.710Z,1001.30
2018-03-08T03:33:57.837Z,1001.32
2018-03-08T03:35:24.928Z,1001.29
2018-03-08T03:36:51.934Z,1001.33
2018-03-08T03:38:19.129Z,1001.33
2018-03-08T03:39:46.379Z,1001.34
2018-03-08T03:41:13.368Z,1001.35
2018-03-08T03:42:40.648Z,1001.36
2018-03-08T03:44:07.709Z,1001.37
2018-03-08T03:45:34.889Z,1001.36
2018-03-08T03:47:02.001Z,1001.35
2018-03-08T03:48:29.245Z,1001.35
2018-03-08T03:49:56.603Z,1001.36
2018-03-08T03:51:23.724Z,1001.36
2018-03-08T03:52:50.934Z,1001.38
2018-03-08T03:54:18.075Z,1001.40
2018-03-08T03:55:45.299Z,1001.43
2018-03-08T03:57:12.271Z,1001.43
2018-03-08T03:58:39.619Z,1001.43
2018-03-08T04:00:06.860Z,1001.43
2018-03-08T04:01:33.920Z,1001.43
2018-03-08T04:03:01.067Z,1001.43
2018-03-08T04:04:28.144Z,1001.44
2018-03-08T04:05:55.341Z,1001.42
2018-03-08T04:07:22.512Z,1001.44
2018-03-08T04:08:49.769Z,1001.41
2018-03-08T04:10:16.902Z,1001.41
2018-03-08T04:11:44.031Z,1001.41
2018-03-08T04:13:11.338Z,1001.42
2018-03-08T04:14:38.259Z,1001.44
2018-03-08T04:16:05.293Z,1001.43
2018-03-08T04:17:32.619Z,1001.43
2018-03-08T04:18:59.784Z,1001.46
2018-03-08T04:20:26.894Z,1001.48
2018-03-08T04:21:54.008Z,1001.47
2018-03-08T04:23:21.156Z,1001.49
2018-03-08T04:24:48.182Z,1001.51
2018-03-08T04:26:15.414Z,1001.53
2018-03-08T04:27:42.700Z,1001.54
2018-03-08T04:29:09.684Z,1001.54
2018-03-08T04:30:36.847Z,1001.55
2018-03-08T04:32:04.051Z,1001.55
2018-03-08T04:33:31.282Z,1001.57
2018-03-08T04:34:58.396Z,1001.56
2018-03-08T04:36:25.528Z,1001.53
2018-03-08T04:37:52.708Z,1001.54
2018-03-08T04:39:19.870Z,1001.54
2018-03-08T04:40:47.118Z,1001.56
2018-03-08T04:42:14.082Z,1001.57
2018-03-08T04:43:41.291Z,1001.58
2018-03-08T04:45:08.450Z,1001.59
2018-03-08T04:46:35.562Z,1001.62
2018-03-08T04:48:02.760Z,1001.63
2018-03-08T04:49:30.113Z,1001.63
2018-03-08T04:50:57.055Z,1001.67
2018-03-08T04:52:24.151Z,1001.66
2018-03-08T04:53:51.285Z,1001.66
2018-03-08T04:55:18.572Z,1001.68
2018-03-08T04:56:45.639Z,1001.69
2018-03-08T04:58:12.809Z,1001.69
2018-03-08T04:59:39.999Z,1001.71
2018-03-08T05:01:07.219Z,1001.69
2018-03-08T05:02:34.254Z,1001.72
2018-03-08T05:04:01.321Z,1001.72
2018-03-08T05:05:28.538Z,1001.73
2018-03-08T05:06:55.831Z,1001.76
2018-03-08T05:08:23.062Z,1001.77
2018-03-08T05:09:50.314Z,1001.77
2018-03-08T05:11:17.460Z,1001.77
2018-03-08T05:12:44.498Z,1001.76
2018-03-08T05:14:11.656Z,1001.78
2018-03-08T05:15:38.830Z,1001.80
2018-03-08T05:17:05.897Z,1001.81
2018-03-08T05:18:33.032Z,1001.81
2018-03-08T05:20:00.135Z,1001.81
2018-03-08T05:21:27.651Z,1001.82
2018-03-08T05:22:54.891Z,1001.82
2018-03-08T05:24:21.774Z,1001.81
2018-03-08T05:25:49.002Z,1001.83
2018-03-08T05:27:16.104Z,1001.83
2018-03-08T05:28:43.274Z,1001.85
2018-03-08T05:30:10.470Z,1001.83
2018-03-08T05:31:37.596Z,1001.86
2018-03-08T05:33:04.851Z,1001.86
2018-03-08T05:34:32.153Z,1001.86
2018-03-08T05:35:59.192Z,1001.90
2018-03-08T05:37:26.542Z,1001.89
2018-03-08T05:38:53.652Z,1001.91
2018-03-08T05:40:20.640Z,1001.91
2018-03-08T05:41:47.892Z,1001.91
2018-03-08T05:43:15.157Z,1001.92
2018-03-08T05:44:42.505Z,1001.93
2018-03-08T05:46:09.442Z,1001.95
2018-03-08T05:47:36.559Z,1001.95
2018-03-08T05:49:03.908Z,1001.98
2018-03-08T05:50:31.044Z,1001.98
2018-03-08T05:51:58.225Z,1002.02
2018-03-08T05:53:25.483Z,1002.02
2018-03-08T05:54:52.647Z,1002.04
2018-03-08T05:56:19.826Z,1002.06
2018-03-08T05:57:47.123Z,1002.07
2018-03-08T05:59:14.361Z,1002.08
2018-03-08T06:00:41.415Z,1002.09
2018-03-08T06:02:08.458Z,1002.08
2018-03-08T06:03:35.281Z,1002.11
2018-03-08T06:05:02.571Z,1002.10
2018-03-08T06:06:29.667Z,1002.11
2018-03-08T06:07:56.771Z,1002.12
2018-03-08T06:09:24.270Z,1002.15
2018-03-08T06:10:51.289Z,1002.19
2018-03-08T06:12:18.450Z,1002.22
2018-03-08T06:13:45.464Z,1002.21
2018-03-08T06:15:12.789Z,1002.20
2018-03-08T06:16:39.933Z,1002.24
2018-03-08T06:18:06.738Z,1002.29
2018-03-08T06:19:34.041Z,1002.32
2018-03-08T06:21:01.221Z,1002.35
2018-03-08T06:22:28.598Z,1002.36
2018-03-08T06:23:55.811Z,1002.37
2018-03-08T06:25:23.134Z,1002.38
2018-03-08T06:26:50.240Z,1002.41
2018-03-08T06:28:17.504Z,1002.43
2018-03-08T06:29:44.426Z,1002.42
2018-03-08T06:31:11.606Z,1002.42
2018-03-08T06:32:38.697Z,1002.42
2018-03-08T06:34:05.790Z,1002.42
2018-03-08T06:35:33.048Z,1002.42
2018-03-08T06:37:00.313Z,1002.41
2018-03-08T06:38:27.356Z,1002.42
2018-03-08T06:39:54.561Z,1002.43
2018-03-08T06:41:21.786Z,1002.43
2018-03-08T06:42:49.028Z,1002.44
2018-03-08T06:44:16.028Z,1002.46
2018-03-08T06:45:43.249Z,1002.48
2018-03-08T06:47:10.297Z,1002.49
2018-03-08T06:48:37.310Z,1002.51
2018-03-08T06:50:04.627Z,1002.51
2018-03-08T06:51:31.639Z,1002.52
2018-03-08T06:52:58.793Z,1002.53
2018-03-08T06:54:26.069Z,1002.56
2018-03-08T06:55:53.223Z,1002.56
2018-03-08T06:57:20.380Z,1002.57
2018-03-08T06:58:47.519Z,1002.57
2018-03-08T07:00:14.913Z,1002.54
2018-03-08T07:01:42.030Z,1002.55
2018-03-08T07:03:09.168Z,1002.56
2018-03-08T07:04:36.194Z,1002.55
2018-03-08T07:06:03.228Z,1002.57
2018-03-08T07:07:30.478Z,1002.56
2018-03-08T07:08:57.728Z,1002.59
2018-03-08T07:10:24.944Z,1002.57
2018-03-08T07:11:52.320Z,1002.57
2018-03-08T07:13:19.380Z,1002.56
2018-03-08T07:14:46.649Z,1002.53
2018-03-08T07:16:14.761Z,1002.56
2018-03-08T07:17:40.945Z,1002.53
2018-03-08T07:19:08.275Z,1002.52
2018-03-08T07:20:35.080Z,1002.51
2018-03-08T07:22:02.265Z,1002.53
2018-03-08T07:23:29.362Z,1002.53
2018-03-08T07:24:56.388Z,1002.52
2018-03-08T07:26:23.599Z,1002.51
2018-03-08T07:27:50.891Z,1002.51
2018-03-08T07:29:17.956Z,1002.44
2018-03-08T07:30:44.995Z,1002.44
2018-03-08T07:32:12.321Z,1002.49
2018-03-08T07:33:39.616Z,1002.51
2018-03-08T07:35:06.732Z,1002.52
2018-03-08T07:36:33.902Z,1002.48
2018-03-08T07:38:01.102Z,1002.48
2018-03-08T07:39:28.274Z,1002.49
2018-03-08T07:40:55.379Z,1002.52
2018-03-08T07:42:22.485Z,1002.54
2018-03-08T07:43:49.630Z,1002.55
2018-03-08T07:45:16.911Z,1002.58
2018-03-08T07:46:44.179Z,1002.59
2018-03-08T07:48:11.202Z,1002.60
2018-03-08T07:49:38.307Z,1002.61
2018-03-08T07:51:05.349Z,1002.60
2018-03-08T07:52:32.560Z,1002.60
2018-03-08T07:53:59.546Z,1002.63
2018-03-08T07:55:26.827Z,1002.62
2018-03-08T07:56:54.136Z,1002.61
2018-03-08T07:58:21.164Z,1002.60
2018-03-08T07:59:48.285Z,1002.61
2018-03-08T08:01:15.395Z,1002.65
2018-03-08T08:02:42.591Z,1002.65
2018-03-08T08:04:09.538Z,1002.67
2018-03-08T08:05:36.600Z,1002.67
2018-03-08T08:07:03.840Z,1002.66
2018-03-08T08:08:30.822Z,1002.70
2018-03-08T08:09:58.010Z,1002.71
2018-03-08T08:11:25.275Z,1002.73
2018-03-08T08:12:52.329Z,1002.72
2018-03-08T08:14:19.360Z,1002.70
2018-03-08T08:15:46.673Z,1002.71
2018-03-08T08:17:13.969Z,1002.71
2018-03-08T08:18:41.164Z,1002.68
2018-03-08T08:20:08.437Z,1002.67
2018-03-08T08:21:35.128Z,1002.67
2018-03-08T08:23:02.426Z,1002.70
2018-03-08T08:24:29.570Z,1002.69
2018-03-08T08:25:56.751Z,1002.65
2018-03-08T08:27:23.904Z,1002.65
2018-03-08T08:28:51.086Z,1002.64
2018-03-08T08:30:18.264Z,1002.63
2018-03-08T08:31:45.542Z,1002.60
2018-03-08T08:33:12.810Z,1002.61
2018-03-08T08:36:07.146Z,1002.64
2018-03-08T08:37:34.552Z,1002.63
2018-03-08T08:39:01.671Z,1002.61
2018-03-08T08:40:28.899Z,1002.61
2018-03-08T08:41:56.134Z,1002.59
2018-03-08T08:43:23.324Z,1002.60
2018-03-08T08:44:50.669Z,1002.63
2018-03-08T08:46:17.633Z,1002.64
2018-03-08T08:47:44.796Z,1002.67
2018-03-08T08:49:11.789Z,1002.67
2018-03-08T08:50:39.149Z,1002.65
2018-03-08T08:52:06.201Z,1002.67
2018-03-08T08:53:33.324Z,1002.70
2018-03-08T08:55:00.479Z,1002.74
2018-03-08T08:56:27.593Z,1002.75
2018-03-08T08:57:54.746Z,1002.73
2018-03-08T08:59:22.084Z,1002.74
2018-03-08T09:00:49.227Z,1002.74
2018-03-08T09:02:16.193Z,1002.75
2018-03-08T09:03:43.462Z,1002.78
2018-03-08T09:05:10.888Z,1002.84
2018-03-08T09:06:37.856Z,1002.83
2018-03-08T09:08:04.913Z,1002.86
2018-03-08T09:09:32.286Z,1002.89
2018-03-08T09:10:59.483Z,1002.90
2018-03-08T09:12:26.672Z,1002.93
2018-03-08T09:13:53.734Z,1002.93
2018-03-08T09:15:20.990Z,1002.94
2018-03-08T09:16:48.184Z,1002.96
2018-03-08T09:18:15.364Z,1002.95
2018-03-08T09:19:42.584Z,1002.97
2018-03-08T09:21:09.645Z,1002.94
2018-03-08T09:22:36.744Z,1002.95
2018-03-08T09:24:03.988Z,1002.94
2018-03-08T09:25:31.160Z,1002.95
2018-03-08T09:26:58.283Z,1002.92
2018-03-08T09:28:25.402Z,1002.92
2018-03-08T09:29:52.580Z,1002.87
2018-03-08T09:31:19.781Z,1002.90
2018-03-08T09:32:46.909Z,1002.92
2018-03-08T09:34:14.056Z,1002.90
2018-03-08T09:35:41.417Z,1002.93
2018-03-08T09:37:08.475Z,1002.94
2018-03-08T09:38:35.439Z,1002.95
2018-03-08T09:40:02.558Z,1002.96
2018-03-08T09:41:29.815Z,1002.95
2018-03-08T09:42:57.179Z,1002.94
2018-03-08T09:44:24.396Z,1002.96
2018-03-08T09:45:51.576Z,1002.96
2018-03-08T09:47:18.788Z,1002.96
2018-03-08T09:48:45.821Z,1002.96
2018-03-08T09:50:13.091Z,1002.97
2018-03-08T09:51:40.242Z,1002.99
2018-03-08T09:53:07.521Z,1003.01
2018-03-08T09:54:34.454Z,1003.03
2018-03-08T09:56:01.879Z,1003.01
2018-03-08T09:57:29.019Z,1003.00
2018-03-08T09:58:56.227Z,1003.04
2018-03-08T10:00:23.528Z,1003.06
2018-03-08T10:01:50.781Z,1003.09
2018-03-08T10:03:17.928Z,1003.10
2018-03-08T10:04:45.195Z,1003.08
2018-03-08T10:06:12.264Z,1003.09
2018-03-08T10:07:39.412Z,1003.11
2018-03-08T10:09:06.567Z,1003.09
2018-03-08T10:10:33.918Z,1003.07
2018-03-08T10:12:01.124Z,1003.09
2018-03-08T10:13:28.406Z,1003.07
2018-03-08T10:14:55.496Z,1003.06
2018-03-08T10:16:22.716Z,1003.07
2018-03-08T10:17:49.875Z,1003.09
2018-03-08T10:19:17.200Z,1003.11
2018-03-08T10:20:44.406Z,1003.12
2018-03-08T10:22:11.778Z,1003.11
2018-03-08T10:23:38.945Z,1003.12
2018-03-08T10:25:06.127Z,1003.12
2018-03-08T10:26:33.434Z,1003.13
2018-03-08T10:28:00.559Z,1003.18
2018-03-08T10:29:27.798Z,1003.18
2018-03-08T10:30:55.217Z,1003.22
2018-03-08T10:32:22.217Z,1003.21
2018-03-08T10:33:49.386Z,1003.22
2018-03-08T10:36:43.591Z,1003.29
2018-03-08T10:38:10.834Z,1003.29
2018-03-08T10:39:37.971Z,1003.29
2018-03-08T10:41:05.153Z,1003.29
2018-03-08T10:43:59.542Z,1003.31
2018-03-08T10:45:26.658Z,1003.31
2018-03-08T10:46:54.022Z,1003.34
2018-03-08T10:48:21.253Z,1003.34
2018-03-08T10:49:48.577Z,1003.35
2018-03-08T10:51:15.630Z,1003.36
2018-03-08T10:52:42.642Z,1003.35
2018-03-08T10:54:10.054Z,1003.37
2018-03-08T10:55:37.207Z,1003.38
2018-03-08T10:57:04.530Z,1003.39
2018-03-08T10:58:33.210Z,1003.37
2018-03-08T10:59:58.973Z,1003.41
2018-03-08T11:01:26.307Z,1003.40
2018-03-08T11:02:53.511Z,1003.40
2018-03-08T11:04:20.726Z,1003.41
2018-03-08T11:05:47.832Z,1003.38
2018-03-08T11:07:15.092Z,1003.40
2018-03-08T11:08:42.192Z,1003.42
2018-03-08T11:10:09.385Z,1003.43
2018-03-08T11:11:36.568Z,1003.45
2018-03-08T11:13:03.954Z,1003.48
2018-03-08T11:14:31.262Z,1003.49
2018-03-08T11:15:58.462Z,1003.52
2018-03-08T11:17:25.687Z,1003.54
2018-03-08T11:18:52.859Z,1003.54
2018-03-08T11:20:19.900Z,1003.54
2018-03-08T11:21:47.392Z,1003.56
2018-03-08T11:23:14.557Z,1003.57
2018-03-08T11:24:41.765Z,1003.55
2018-03-08T11:26:09.026Z,1003.55
2018-03-08T11:27:36.192Z,1003.55
2018-03-08T11:29:03.352Z,1003.57
2018-03-08T11:30:30.371Z,1003.58
2018-03-08T11:31:57.642Z,1003.60
2018-03-08T11:33:24.848Z,1003.59
2018-03-08T11:34:52.018Z,1003.62
2018-03-08T11:36:19.179Z,1003.60
2018-03-08T11:37:47.726Z,1003.60
2018-03-08T11:39:13.610Z,1003.61
2018-03-08T11:40:41.004Z,1003.65
2018-03-08T11:42:09.276Z,1003.67
2018-03-08T11:43:35.236Z,1003.68
2018-03-08T11:45:02.500Z,1003.71
2018-03-08T11:46:29.714Z,1003.68
2018-03-08T11:47:56.827Z,1003.68
2018-03-08T11:49:24.006Z,1003.69
2018-03-08T11:50:51.098Z,1003.66
2018-03-08T11:52:18.092Z,1003.66
2018-03-08T11:53:45.514Z,1003.65
2018-03-08T11:55:12.699Z,1003.65
2018-03-08T11:56:39.937Z,1003.68
2018-03-08T11:58:07.140Z,1003.68
2018-03-08T11:59:34.545Z,1003.69
2018-03-08T12:01:01.715Z,1003.73
2018-03-08T12:02:28.871Z,1003.70
2018-03-08T12:03:56.137Z,1003.71
2018-03-08T12:05:23.252Z,1003.71
2018-03-08T12:06:50.396Z,1003.68
2018-03-08T12:08:17.558Z,1003.69
2018-03-08T12:09:44.956Z,1003.68
2018-03-08T12:11:12.105Z,1003.66
2018-03-08T12:12:39.320Z,1003.68
2018-03-08T12:14:06.403Z,1003.67
2018-03-08T12:15:33.728Z,1003.70
2018-03-08T12:17:00.881Z,1003.72
2018-03-08T12:18:28.279Z,1003.72
2018-03-08T12:19:55.273Z,1003.77
2018-03-08T12:21:22.626Z,1003.76
2018-03-08T12:22:49.946Z,1003.77
2018-03-08T12:24:16.902Z,1003.78
2018-03-08T12:25:44.223Z,1003.79
2018-03-08T12:27:11.502Z,1003.79
2018-03-08T12:28:38.585Z,1003.78
2018-03-08T12:30:05.642Z,1003.75
2018-03-08T12:31:32.683Z,1003.76
2018-03-08T12:32:59.901Z,1003.76
2018-03-08T12:34:27.236Z,1003.76
2018-03-08T12:35:54.267Z,1003.75
2018-03-08T12:37:21.397Z,1003.75
2018-03-08T12:38:48.567Z,1003.75
2018-03-08T12:40:15.499Z,1003.72
2018-03-08T12:41:42.643Z,1003.69
2018-03-08T12:43:10.035Z,1003.69
2018-03-08T12:44:37.219Z,1003.72
2018-03-08T12:46:04.194Z,1003.72
2018-03-08T12:47:31.441Z,1003.73
2018-03-08T12:48:58.606Z,1003.72
2018-03-08T12:50:25.924Z,1003.72
2018-03-08T12:51:53.261Z,1003.71
2018-03-08T12:53:20.479Z,1003.71
2018-03-08T12:54:47.361Z,1003.72
2018-03-08T12:56:14.522Z,1003.73
2018-03-08T12:57:41.749Z,1003.72
2018-03-08T12:59:08.975Z,1003.75
2018-03-08T13:00:36.026Z,1003.69
2018-03-08T13:02:03.233Z,1003.68
2018-03-08T13:03:30.513Z,1003.70
2018-03-08T13:04:57.637Z,1003.68
2018-03-08T13:06:24.696Z,1003.67
2018-03-08T13:07:51.866Z,1003.68
2018-03-08T13:09:19.008Z,1003.67
2018-03-08T13:10:46.056Z,1003.66
2018-03-08T13:12:13.325Z,1003.67
2018-03-08T13:13:40.645Z,1003.63
2018-03-08T13:15:07.910Z,1003.63
2018-03-08T13:16:35.122Z,1003.64
2018-03-08T13:18:02.414Z,1003.65
2018-03-08T13:19:29.537Z,1003.64
2018-03-08T13:20:56.562Z,1003.64
2018-03-08T13:22:23.768Z,1003.63
2018-03-08T13:23:51.060Z,1003.62
2018-03-08T13:25:18.360Z,1003.61
2018-03-08T13:26:45.594Z,1003.64
2018-03-08T13:28:12.867Z,1003.67
2018-03-08T13:29:39.942Z,1003.68
2018-03-08T13:31:06.976Z,1003.67
2018-03-08T13:32:34.374Z,1003.65
2018-03-08T13:34:01.689Z,1003.65
2018-03-08T13:35:29.048Z,1003.65
2018-03-08T13:36:56.147Z,1003.62
2018-03-08T13:38:23.178Z,1003.63
2018-03-08T13:39:50.266Z,1003.59
2018-03-08T13:41:17.567Z,1003.62
2018-03-08T13:42:44.856Z,1003.60
2018-03-08T13:44:12.010Z,1003.62
2018-03-08T13:45:38.995Z,1003.60
2018-03-08T13:47:06.100Z,1003.59
2018-03-08T13:48:33.218Z,1003.59
2018-03-08T13:50:00.669Z,1003.58
2018-03-08T13:51:27.839Z,1003.59
2018-03-08T13:52:55.089Z,1003.62
2018-03-08T13:54:22.254Z,1003.61
2018-03-08T13:55:50.646Z,1003.65
2018-03-08T13:57:16.677Z,1003.64
2018-03-08T13:58:43.903Z,1003.71
2018-03-08T14:00:11.184Z,1003.68
2018-03-08T14:01:38.408Z,1003.70
2018-03-08T14:03:05.563Z,1003.71
2018-03-08T14:04:32.736Z,1003.72
2018-03-08T14:05:59.996Z,1003.72
2018-03-08T14:07:27.290Z,1003.70
2018-03-08T14:08:54.602Z,1003.68
2018-03-08T14:10:21.408Z,1003.68
2018-03-08T14:11:48.767Z,1003.69
2018-03-08T14:13:16.103Z,1003.69
2018-03-08T14:14:43.356Z,1003.68
2018-03-08T14:16:10.480Z,1003.65
2018-03-08T14:17:37.622Z,1003.63
2018-03-08T14:19:04.833Z,1003.63
2018-03-08T14:20:32.191Z,1003.59
2018-03-08T14:21:59.287Z,1003.57
2018-03-08T14:23:26.411Z,1003.53
2018-03-08T14:24:53.737Z,1003.51
2018-03-08T14:26:20.817Z,1003.49
2018-03-08T14:27:47.857Z,1003.47
2018-03-08T14:29:14.981Z,1003.44
2018-03-08T14:30:42.191Z,1003.44
2018-03-08T14:32:09.378Z,1003.40
2018-03-08T14:33:36.380Z,1003.36
2018-03-08T14:35:03.497Z,1003.34
2018-03-08T14:36:30.829Z,1003.29
2018-03-08T14:37:58.214Z,1003.28
2018-03-08T14:39:25.578Z,1003.27
2018-03-08T14:40:52.928Z,1003.25
2018-03-08T14:42:20.038Z,1003.20
2018-03-08T14:43:47.151Z,1003.18
2018-03-08T14:45:14.065Z,1003.14
2018-03-08T14:46:41.229Z,1003.16
2018-03-08T14:48:08.490Z,1003.15
2018-03-08T14:49:35.578Z,1003.17
2018-03-08T14:51:02.937Z,1003.13
2018-03-08T14:52:30.204Z,1003.15
2018-03-08T14:53:57.474Z,1003.10
2018-03-08T14:55:24.772Z,1003.14
2018-03-08T14:56:51.928Z,1003.15
2018-03-08T14:58:18.852Z,1003.12
2018-03-08T14:59:45.495Z,1003.13
2018-03-08T15:01:12.639Z,1003.13
2018-03-08T15:02:39.528Z,1003.15
2018-03-08T15:04:06.517Z,1003.13
2018-03-08T15:05:33.785Z,1003.09
2018-03-08T15:07:00.828Z,1003.06
2018-03-08T15:08:28.235Z,1003.05
2018-03-08T15:09:55.350Z,1003.05
2018-03-08T15:11:22.562Z,1003.03
2018-03-08T15:12:49.851Z,1003.00
2018-03-08T15:14:16.993Z,1002.99
2018-03-08T15:15:44.197Z,1002.98
2018-03-08T15:17:11.473Z,1002.96
2018-03-08T15:18:38.665Z,1002.96
2018-03-08T15:20:05.634Z,1002.96
2018-03-08T15:21:32.901Z,1002.95
2018-03-08T15:23:00.241Z,1002.94
2018-03-08T15:24:27.550Z,1002.92
2018-03-08T15:25:54.897Z,1002.92
2018-03-08T15:27:22.467Z,1002.90
2018-03-08T15:28:49.598Z,1002.87
2018-03-08T15:30:16.660Z,1002.85
2018-03-08T15:31:43.896Z,1002.85
2018-03-08T15:33:11.087Z,1002.82
2018-03-08T15:34:38.212Z,1002.84
2018-03-08T15:36:05.443Z,1002.85
2018-03-08T15:37:32.818Z,1002.83
2018-03-08T15:39:00.054Z,1002.82
2018-03-08T15:40:27.360Z,1002.80
2018-03-08T15:41:54.687Z,1002.77
2018-03-08T15:43:22.058Z,1002.79
2018-03-08T15:44:49.331Z,1002.79
2018-03-08T15:46:16.505Z,1002.75
2018-03-08T15:47:43.837Z,1002.74
2018-03-08T15:49:10.939Z,1002.76
2018-03-08T15:50:38.222Z,1002.74
2018-03-08T15:52:05.634Z,1002.75
2018-03-08T15:53:32.900Z,1002.74
2018-03-08T15:55:00.108Z,1002.74
2018-03-08T15:56:27.256Z,1002.75
2018-03-08T15:57:54.529Z,1002.74
2018-03-08T15:59:21.718Z,1002.73
2018-03-08T16:00:49.106Z,1002.73
2018-03-08T16:02:16.348Z,1002.71
2018-03-08T16:03:43.791Z,1002.71
2018-03-08T16:05:10.893Z,1002.73
2018-03-08T16:06:38.101Z,1002.71
2018-03-08T16:08:05.081Z,1002.72
2018-03-08T16:09:32.368Z,1002.70
2018-03-08T16:10:59.587Z,1002.69
2018-03-08T16:12:26.837Z,1002.70
2018-03-08T16:13:54.063Z,1002.65
2018-03-08T16:15:21.364Z,1002.68
2018-03-08T16:16:48.541Z,1002.68
2018-03-08T16:18:15.863Z,1002.68
2018-03-08T16:19:43.119Z,1002.68
2018-03-08T16:21:10.207Z,1002.66
2018-03-08T16:22:37.288Z,1002.66
2018-03-08T16:24:04.284Z,1002.69
2018-03-08T16:25:31.611Z,1002.71
2018-03-08T16:26:58.668Z,1002.71
2018-03-08T16:28:25.927Z,1002.74
2018-03-08T16:29:53.127Z,1002.76
2018-03-08T16:31:20.329Z,1002.78
2018-03-08T16:32:47.482Z,1002.78
2018-03-08T16:34:14.722Z,1002.75
2018-03-08T16:35:41.997Z,1002.73
2018-03-08T16:37:09.233Z,1002.70
2018-03-08T16:38:36.426Z,1002.71
2018-03-08T16:40:03.595Z,1002.71
2018-03-08T16:41:30.765Z,1002.69
2018-03-08T16:42:57.967Z,1002.67
2018-03-08T16:44:25.274Z,1002.63
2018-03-08T16:45:52.388Z,1002.67
2018-03-08T16:47:19.730Z,1002.67
2018-03-08T16:48:46.760Z,1002.65
2018-03-08T16:50:14.108Z,1002.62
2018-03-08T16:51:41.316Z,1002.63
2018-03-08T16:53:08.456Z,1002.61
2018-03-08T16:54:35.516Z,1002.60
2018-03-08T16:56:02.851Z,1002.56
2018-03-08T16:57:30.032Z,1002.56
2018-03-08T16:58:57.168Z,1002.53
2018-03-08T17:00:24.334Z,1002.54
2018-03-08T17:01:51.439Z,1002.58
2018-03-08T17:03:18.670Z,1002.61
2018-03-08T17:04:45.944Z,1002.60
2018-03-08T17:06:13.323Z,1002.59
2018-03-08T17:07:40.577Z,1002.56
2018-03-08T17:09:07.809Z,1002.54
2018-03-08T17:10:35.025Z,1002.53
2018-03-08T17:12:05.256Z,1002.50
2018-03-08T17:13:29.549Z,1002.52
2018-03-08T17:14:56.805Z,1002.54
2018-03-08T17:16:23.834Z,1002.52
2018-03-08T17:17:51.022Z,1002.57
2018-03-08T17:19:18.397Z,1002.56
2018-03-08T17:20:45.657Z,1002.55
2018-03-08T17:22:12.809Z,1002.55
2018-03-08T17:23:40.076Z,1002.55
2018-03-08T17:25:07.290Z,1002.55
2018-03-08T17:26:34.643Z,1002.59
2018-03-08T17:28:01.727Z,1002.61
2018-03-08T17:29:28.892Z,1002.63
2018-03-08T17:30:56.145Z,1002.62
2018-03-08T17:32:23.325Z,1002.59
2018-03-08T17:33:50.438Z,1002.61
2018-03-08T17:35:17.669Z,1002.62
2018-03-08T17:36:44.791Z,1002.62
2018-03-08T17:38:12.013Z,1002.62
2018-03-08T17:39:39.184Z,1002.63
2018-03-08T17:41:06.351Z,1002.64